createdAt,value
2023-03-05T00:01:51.878Z,3.94
2023-03-05T00:04:21.073Z,3.89
2023-03-05T00:06:50.034Z,3.74
2023-03-05T00:09:22.546Z,3.63
2023-03-05T00:11:51.471Z,3.78
2023-03-05T00:14:20.323Z,3.63
2023-03-05T00:16:49.764Z,3.57
2023-03-05T00:19:18.557Z,3.51
2023-03-05T00:21:47.625Z,3.35
2023-03-05T00:24:19.418Z,3.65
2023-03-05T00:26:49.359Z,3.67
2023-03-05T00:29:25.487Z,3.29
2023-03-05T00:31:54.691Z,3.39
2023-03-05T00:34:24.115Z,3.31
2023-03-05T00:36:54.079Z,3.42
2023-03-05T00:39:23.669Z,3.56
2023-03-05T00:41:52.543Z,4.10
2023-03-05T00:44:22.442Z,3.80
2023-03-05T00:46:52.077Z,3.84
2023-03-05T00:49:21.474Z,3.77
2023-03-05T00:51:50.303Z,3.77
2023-03-05T00:54:19.622Z,3.89
2023-03-05T00:56:50.066Z,3.95
2023-03-05T00:59:18.896Z,4.09
2023-03-05T01:01:47.635Z,4.22
2023-03-05T01:04:16.550Z,4.23
2023-03-05T01:06:47.007Z,4.14
2023-03-05T01:09:22.736Z,4.19
2023-03-05T01:11:51.422Z,4.41
2023-03-05T01:14:21.635Z,4.50
2023-03-05T01:16:50.850Z,4.85
2023-03-05T01:19:22.385Z,4.98
2023-03-05T01:21:51.616Z,4.86
2023-03-05T01:24:20.734Z,4.39
2023-03-05T01:26:50.345Z,4.44
2023-03-05T01:29:21.796Z,4.14
2023-03-05T01:31:50.990Z,3.90
2023-03-05T01:34:19.543Z,4.02
2023-03-05T01:36:50.987Z,3.99
2023-03-05T01:39:19.871Z,3.91
2023-03-05T01:41:48.684Z,4.21
2023-03-05T01:44:29.461Z,4.47
2023-03-05T01:46:59.416Z,4.50
2023-03-05T01:49:37.544Z,4.70
2023-03-05T01:52:18.879Z,4.53
2023-03-05T01:55:16.219Z,4.83
2023-03-05T01:57:54.627Z,4.78
2023-03-05T02:00:29.064Z,5.34
2023-03-05T02:03:03.393Z,5.78
2023-03-05T02:05:35.536Z,6.28
2023-03-05T02:08:07.835Z,6.61
2023-03-05T02:10:44.428Z,7.06
2023-03-05T02:13:20.137Z,7.33
2023-03-05T02:15:50.645Z,7.84
2023-03-05T02:18:20.950Z,8.35
2023-03-05T02:20:50.174Z,8.74
2023-03-05T02:23:20.976Z,9.30
2023-03-05T02:25:50.211Z,9.50
2023-03-05T02:28:27.440Z,9.99
2023-03-05T02:30:56.362Z,10.23
2023-03-05T02:33:25.057Z,10.48
2023-03-05T02:35:54.298Z,10.79
2023-03-05T02:38:22.989Z,11.25
2023-03-05T02:40:56.211Z,11.50
2023-03-05T02:43:26.343Z,11.63
2023-03-05T02:45:55.431Z,11.87
2023-03-05T02:48:24.483Z,12.26
2023-03-05T02:50:54.800Z,12.58
2023-03-05T02:53:24.687Z,12.41
2023-03-05T02:55:53.897Z,12.42
2023-03-05T02:58:22.738Z,12.60
2023-03-05T03:00:51.415Z,13.07
2023-03-05T03:03:21.013Z,13.42
2023-03-05T03:05:49.925Z,13.55
2023-03-05T03:08:18.966Z,13.30
2023-03-05T03:10:48.132Z,13.88
2023-03-05T03:13:16.887Z,13.98
2023-03-05T03:15:45.733Z,14.42
2023-03-05T03:18:14.910Z,14.48
2023-03-05T03:20:43.703Z,14.83
2023-03-05T03:23:12.973Z,15.14
2023-03-05T03:25:41.644Z,15.38
2023-03-05T03:28:11.101Z,15.53
2023-03-05T03:30:39.803Z,15.34
2023-03-05T03:33:09.023Z,15.18
2023-03-05T03:35:38.250Z,15.55
2023-03-05T03:38:07.270Z,15.95
2023-03-05T03:40:38.233Z,16.16
2023-03-05T03:43:06.937Z,16.47
2023-03-05T03:45:35.838Z,16.49
2023-03-05T03:48:04.736Z,16.39
2023-03-05T03:50:33.816Z,16.44
2023-03-05T03:53:03.421Z,16.52
2023-03-05T03:55:32.077Z,16.55
2023-03-05T03:58:01.271Z,16.64
2023-03-05T04:00:30.708Z,16.61
2023-03-05T04:03:00.565Z,16.47
2023-03-05T04:05:29.034Z,16.18
2023-03-05T04:07:59.490Z,16.18
2023-03-05T04:10:28.885Z,15.96
2023-03-05T04:12:57.649Z,16.11
2023-03-05T04:15:27.317Z,16.20
2023-03-05T04:17:56.000Z,15.88
2023-03-05T04:20:24.872Z,15.33
2023-03-05T04:22:53.660Z,15.26
2023-03-05T04:25:22.719Z,14.93
2023-03-05T04:27:52.879Z,14.71
2023-03-05T04:30:21.796Z,14.86
2023-03-05T04:32:51.076Z,14.79
2023-03-05T04:35:20.475Z,14.67
2023-03-05T04:37:49.758Z,14.73
2023-03-05T04:40:19.489Z,14.75
2023-03-05T04:42:48.707Z,14.71
2023-03-05T04:45:18.267Z,14.40
2023-03-05T04:47:47.457Z,14.43
2023-03-05T04:50:16.989Z,14.76
2023-03-05T04:52:47.316Z,14.74
2023-03-05T04:55:17.559Z,14.83
2023-03-05T04:57:46.202Z,14.72
2023-03-05T05:00:18.622Z,14.78
2023-03-05T05:02:50.341Z,14.67
2023-03-05T05:05:22.241Z,14.79
2023-03-05T05:07:51.602Z,14.79
2023-03-05T05:10:20.740Z,14.73
2023-03-05T05:12:50.525Z,14.87
2023-03-05T05:15:19.768Z,14.65
2023-03-05T05:17:49.535Z,14.74
2023-03-05T05:20:19.054Z,14.79
2023-03-05T05:22:47.802Z,14.74
2023-03-05T05:25:17.012Z,14.70
2023-03-05T05:27:46.439Z,14.58
2023-03-05T05:30:15.464Z,14.74
2023-03-05T05:32:44.416Z,14.54
2023-03-05T05:35:13.630Z,14.65
2023-03-05T05:37:42.938Z,14.70
2023-03-05T05:40:12.285Z,14.77
2023-03-05T05:42:41.286Z,14.96
2023-03-05T05:45:11.734Z,15.24
2023-03-05T05:47:40.945Z,15.47
2023-03-05T05:50:11.191Z,15.21
2023-03-05T05:52:40.398Z,15.60
2023-03-05T05:55:09.489Z,15.83
2023-03-05T05:57:39.122Z,16.21
2023-03-05T06:00:10.783Z,15.96
2023-03-05T06:02:44.158Z,16.56
2023-03-05T06:05:15.793Z,16.71
2023-03-05T06:07:44.604Z,17.15
2023-03-05T06:10:13.580Z,17.49
2023-03-05T06:12:42.925Z,17.24
2023-03-05T06:15:12.381Z,17.61
2023-03-05T06:17:41.292Z,18.24
2023-03-05T06:20:11.633Z,18.40
2023-03-05T06:22:41.684Z,18.85
2023-03-05T06:25:11.068Z,19.66
2023-03-05T06:27:40.380Z,19.75
2023-03-05T06:30:11.305Z,19.84
2023-03-05T06:32:40.176Z,19.44
2023-03-05T06:35:09.967Z,20.46
2023-03-05T06:37:39.303Z,21.10
2023-03-05T06:40:09.546Z,21.23
2023-03-05T06:42:38.345Z,21.75
2023-03-05T06:45:07.870Z,21.78
2023-03-05T06:47:36.698Z,22.63
2023-03-05T06:50:06.140Z,21.66
2023-03-05T06:52:35.150Z,22.45
2023-03-05T06:55:04.962Z,22.60
2023-03-05T06:57:34.075Z,22.87
2023-03-05T07:00:02.839Z,23.62
2023-03-05T07:02:32.317Z,22.45
2023-03-05T07:05:01.098Z,23.33
2023-03-05T07:07:29.932Z,23.83
2023-03-05T07:09:59.043Z,24.22
2023-03-05T07:12:27.966Z,23.64
2023-03-05T07:14:57.066Z,21.65
2023-03-05T07:17:25.734Z,19.22
2023-03-05T07:19:54.283Z,18.42
2023-03-05T07:22:23.555Z,16.78
2023-03-05T07:24:52.781Z,16.29
2023-03-05T07:27:22.138Z,15.96
2023-03-05T07:29:51.018Z,15.31
2023-03-05T07:32:20.172Z,14.92
2023-03-05T07:34:49.305Z,14.77
2023-03-05T07:37:18.151Z,14.43
2023-03-05T07:39:47.379Z,14.11
2023-03-05T07:42:16.681Z,14.10
2023-03-05T07:44:55.300Z,13.46
2023-03-05T07:47:24.661Z,13.33
2023-03-05T07:49:53.683Z,13.44
2023-03-05T07:52:22.748Z,12.95
2023-03-05T07:54:52.009Z,12.65
2023-03-05T07:57:21.542Z,12.58
2023-03-05T07:59:50.417Z,12.25
2023-03-05T08:02:21.168Z,12.30
2023-03-05T08:04:50.226Z,12.12
2023-03-05T08:07:19.055Z,12.23
2023-03-05T08:09:47.813Z,12.36
2023-03-05T08:12:16.580Z,11.83
2023-03-05T08:14:45.415Z,12.02
2023-03-05T08:17:14.378Z,11.80
2023-03-05T08:19:43.291Z,11.98
2023-03-05T08:22:16.966Z,11.78
2023-03-05T08:24:45.960Z,11.68
2023-03-05T08:27:14.518Z,11.62
2023-03-05T08:29:43.460Z,11.70
2023-03-05T08:32:12.403Z,11.68
2023-03-05T08:34:41.263Z,11.83
2023-03-05T08:37:10.774Z,12.04
2023-03-05T08:39:39.639Z,12.31
2023-03-05T08:42:09.073Z,12.40
2023-03-05T08:44:38.699Z,12.36
2023-03-05T08:47:07.793Z,12.49
2023-03-05T08:49:36.639Z,12.74
2023-03-05T08:52:05.630Z,13.91
2023-03-05T08:54:35.624Z,16.44
2023-03-05T08:57:06.307Z,18.20
2023-03-05T08:59:34.914Z,19.33
2023-03-05T09:02:04.444Z,20.16
2023-03-05T09:04:34.137Z,20.08
2023-03-05T09:07:03.049Z,20.07
2023-03-05T09:09:33.785Z,19.75
2023-03-05T09:12:03.509Z,19.62
2023-03-05T09:14:32.309Z,19.65
2023-03-05T09:17:01.330Z,19.86
2023-03-05T09:19:30.025Z,20.67
2023-03-05T09:21:58.819Z,19.97
2023-03-05T09:24:27.831Z,20.72
2023-03-05T09:27:01.169Z,21.27
2023-03-05T09:29:32.556Z,18.73
2023-03-05T09:32:01.775Z,16.41
2023-03-05T09:34:30.642Z,15.10
2023-03-05T09:37:00.672Z,14.59
2023-03-05T09:39:29.206Z,13.82
2023-03-05T09:41:58.005Z,13.95
2023-03-05T09:44:33.194Z,13.99
2023-03-05T09:47:17.519Z,14.04
2023-03-05T09:50:22.695Z,14.38
2023-03-05T09:52:56.955Z,13.96
2023-03-05T09:55:27.681Z,13.98
2023-03-05T09:58:04.381Z,13.63
2023-03-05T10:00:42.747Z,13.77
2023-03-05T10:03:30.225Z,13.32
2023-03-05T10:06:10.795Z,13.37
2023-03-05T10:09:05.260Z,12.72
2023-03-05T10:11:58.616Z,12.17
2023-03-05T10:14:29.556Z,11.84
2023-03-05T10:17:13.638Z,11.75
2023-03-05T10:20:05.164Z,11.57
2023-03-05T10:23:05.570Z,11.70
2023-03-05T10:25:42.720Z,11.80
2023-03-05T10:28:36.444Z,11.53
2023-03-05T10:31:26.440Z,11.67
2023-03-05T10:34:23.497Z,11.24
2023-03-05T10:37:24.181Z,11.13
2023-03-05T10:40:02.158Z,10.84
2023-03-05T10:42:39.544Z,10.71
2023-03-05T10:45:23.107Z,10.62
2023-03-05T10:47:59.536Z,10.40
2023-03-05T10:50:34.936Z,10.11
2023-03-05T10:53:22.425Z,10.25
2023-03-05T10:55:59.802Z,10.08
2023-03-05T10:58:29.333Z,10.05
2023-03-05T11:01:12.814Z,10.02
2023-03-05T11:03:54.282Z,9.88
2023-03-05T11:06:35.602Z,9.74
2023-03-05T11:09:27.144Z,9.67
2023-03-05T11:12:21.415Z,9.53
2023-03-05T11:15:08.707Z,9.69
2023-03-05T11:17:44.137Z,9.47
2023-03-05T11:20:30.085Z,9.99
2023-03-05T11:23:13.027Z,10.28
2023-03-05T11:25:57.798Z,10.39
2023-03-05T11:28:33.226Z,10.70
2023-03-05T11:31:08.551Z,10.69
2023-03-05T11:33:39.059Z,10.55
2023-03-05T11:36:31.391Z,10.50
2023-03-05T11:39:03.162Z,10.12
2023-03-05T11:41:34.431Z,10.24
2023-03-05T11:44:13.302Z,9.90
2023-03-05T11:46:49.745Z,10.05
2023-03-05T11:49:29.372Z,10.12
2023-03-05T11:52:11.565Z,10.36
2023-03-05T11:55:08.585Z,10.30
2023-03-05T11:57:58.702Z,10.20
2023-03-05T12:00:31.070Z,10.31
2023-03-05T12:03:06.060Z,10.26
2023-03-05T12:05:38.793Z,10.29
2023-03-05T12:08:14.033Z,10.30
2023-03-05T12:10:43.067Z,10.02
2023-03-05T12:13:43.166Z,10.06
2023-03-05T12:16:43.856Z,10.01
2023-03-05T12:19:31.551Z,10.15
2023-03-05T12:22:01.116Z,10.14
2023-03-05T12:24:30.356Z,10.21
2023-03-05T12:27:05.644Z,10.11
2023-03-05T12:29:34.306Z,10.01
2023-03-05T12:32:03.981Z,9.84
2023-03-05T12:34:41.863Z,9.64
2023-03-05T12:37:15.328Z,9.47
2023-03-05T12:39:53.561Z,9.25
2023-03-05T12:42:32.220Z,9.04
2023-03-05T12:45:13.591Z,8.84
2023-03-05T12:48:12.828Z,8.67
2023-03-05T12:50:44.100Z,8.52
2023-03-05T12:53:21.862Z,8.44
2023-03-05T12:56:20.553Z,8.37
2023-03-05T12:58:54.790Z,8.16
2023-03-05T13:01:35.714Z,7.97
2023-03-05T13:04:16.880Z,7.64
2023-03-05T13:06:46.704Z,7.61
2023-03-05T13:09:32.367Z,7.63
2023-03-05T13:12:02.996Z,7.45
2023-03-05T13:14:34.829Z,7.57
2023-03-05T13:17:04.977Z,7.33
2023-03-05T13:19:37.032Z,7.22
2023-03-05T13:22:12.791Z,7.24
2023-03-05T13:24:42.792Z,7.22
2023-03-05T13:27:33.829Z,7.28
2023-03-05T13:30:03.234Z,7.31
2023-03-05T13:32:34.017Z,7.08
2023-03-05T13:35:04.105Z,7.01
2023-03-05T13:37:38.813Z,6.95
2023-03-05T13:40:25.004Z,6.83
2023-03-05T13:42:54.869Z,6.90
2023-03-05T13:45:31.525Z,6.94
2023-03-05T13:48:03.099Z,6.65
2023-03-05T13:50:33.858Z,7.05
2023-03-05T13:53:33.430Z,7.18
2023-03-05T13:56:06.669Z,7.28
2023-03-05T13:58:56.919Z,7.19
2023-03-05T14:01:39.747Z,7.23
2023-03-05T14:04:25.186Z,7.15
2023-03-05T14:07:07.201Z,7.28
2023-03-05T14:09:39.541Z,7.19
2023-03-05T14:12:38.704Z,6.98
2023-03-05T14:15:35.730Z,6.85
2023-03-05T14:18:14.592Z,6.88
2023-03-05T14:21:03.899Z,6.88
2023-03-05T14:23:46.874Z,6.99
2023-03-05T14:26:18.730Z,6.94
2023-03-05T14:28:58.977Z,6.68
2023-03-05T14:31:30.775Z,6.98
2023-03-05T14:34:06.085Z,6.59
2023-03-05T14:36:36.081Z,6.79
2023-03-05T14:39:06.427Z,6.73
2023-03-05T14:41:35.372Z,7.03
2023-03-05T14:44:10.571Z,6.97
2023-03-05T14:46:40.478Z,7.07
2023-03-05T14:49:09.543Z,6.99
2023-03-05T14:51:44.642Z,7.16
2023-03-05T14:54:26.899Z,7.28
2023-03-05T14:56:55.782Z,7.11
2023-03-05T14:59:24.276Z,7.48
2023-03-05T15:01:54.081Z,7.26
2023-03-05T15:04:23.680Z,7.37
2023-03-05T15:06:54.457Z,7.30
2023-03-05T15:09:23.518Z,7.14
2023-03-05T15:11:52.778Z,7.10
2023-03-05T15:14:22.298Z,7.16
2023-03-05T15:16:51.491Z,7.12
2023-03-05T15:19:22.479Z,7.41
2023-03-05T15:21:52.834Z,7.31
2023-03-05T15:24:21.963Z,7.21
2023-03-05T15:26:50.469Z,7.07
2023-03-05T15:29:19.647Z,7.29
2023-03-05T15:31:48.643Z,7.23
2023-03-05T15:34:17.787Z,7.40
2023-03-05T15:36:48.234Z,7.43
2023-03-05T15:39:17.804Z,7.40
2023-03-05T15:41:46.734Z,7.47
2023-03-05T15:44:16.022Z,7.19
2023-03-05T15:46:44.759Z,7.34
2023-03-05T15:49:14.699Z,7.51
2023-03-05T15:51:43.278Z,7.47
2023-03-05T15:54:12.302Z,7.38
2023-03-05T15:56:43.291Z,7.41
2023-03-05T15:59:12.611Z,7.50
2023-03-05T16:01:42.491Z,7.68
2023-03-05T16:04:11.798Z,7.61
2023-03-05T16:06:40.651Z,7.35
2023-03-05T16:09:10.521Z,7.10
2023-03-05T16:11:47.563Z,7.02
2023-03-05T16:14:21.431Z,6.84
2023-03-05T16:16:53.381Z,6.72
2023-03-05T16:19:24.433Z,6.78
2023-03-05T16:21:53.312Z,6.69
2023-03-05T16:24:22.034Z,6.42
2023-03-05T16:26:51.642Z,6.36
2023-03-05T16:29:22.017Z,5.76
2023-03-05T16:31:50.604Z,5.76
2023-03-05T16:34:19.718Z,5.77
2023-03-05T16:36:53.160Z,5.39
2023-03-05T16:39:22.390Z,5.47
2023-03-05T16:41:51.742Z,5.66
2023-03-05T16:44:21.358Z,5.44
2023-03-05T16:46:54.319Z,5.21
2023-03-05T16:49:24.726Z,5.10
2023-03-05T16:51:54.408Z,5.34
2023-03-05T16:54:23.322Z,5.27
2023-03-05T16:56:52.091Z,5.13
2023-03-05T16:59:21.858Z,5.04
2023-03-05T17:01:50.706Z,5.25
2023-03-05T17:04:20.795Z,5.11
2023-03-05T17:06:50.798Z,4.95
2023-03-05T17:09:24.552Z,5.11
2023-03-05T17:11:54.844Z,5.16
2023-03-05T17:14:23.921Z,5.19
2023-03-05T17:16:52.887Z,5.26
2023-03-05T17:19:22.405Z,5.60
2023-03-05T17:21:54.600Z,5.43
2023-03-05T17:24:27.104Z,5.62
2023-03-05T17:26:57.314Z,6.00
2023-03-05T17:29:27.332Z,5.85
2023-03-05T17:31:56.060Z,6.00
2023-03-05T17:34:35.611Z,6.39
2023-03-05T17:37:07.042Z,6.55
2023-03-05T17:39:36.259Z,6.56
2023-03-05T17:42:04.986Z,7.00
2023-03-05T17:44:33.901Z,7.12
2023-03-05T17:47:04.003Z,7.12
2023-03-05T17:49:33.627Z,6.87
2023-03-05T17:52:03.044Z,6.68
2023-03-05T17:54:32.703Z,7.03
2023-03-05T17:57:01.666Z,6.73
2023-03-05T17:59:30.913Z,6.72
2023-03-05T18:01:59.777Z,6.88
2023-03-05T18:04:28.588Z,6.95
2023-03-05T18:06:59.598Z,6.90
2023-03-05T18:09:29.414Z,6.64
2023-03-05T18:11:58.384Z,6.89
2023-03-05T18:14:27.672Z,6.81
2023-03-05T18:17:01.233Z,6.86
2023-03-05T18:19:30.321Z,7.12
2023-03-05T18:21:58.784Z,7.03
2023-03-05T18:24:28.487Z,6.92
2023-03-05T18:26:57.499Z,6.94
2023-03-05T18:29:26.447Z,7.12
2023-03-05T18:31:55.833Z,6.87
2023-03-05T18:34:26.536Z,7.12
2023-03-05T18:36:55.579Z,6.84
2023-03-05T18:39:25.145Z,6.71
2023-03-05T18:41:55.013Z,6.66
2023-03-05T18:44:24.373Z,6.46
2023-03-05T18:46:53.783Z,6.45
2023-03-05T18:49:22.681Z,7.14
2023-03-05T18:51:51.914Z,6.81
2023-03-05T18:54:21.709Z,6.84
2023-03-05T18:56:50.595Z,6.53
2023-03-05T18:59:21.881Z,6.37
2023-03-05T19:01:52.280Z,6.59
2023-03-05T19:04:21.513Z,6.59
2023-03-05T19:06:50.868Z,6.31
2023-03-05T19:10:03.083Z,6.10
2023-03-05T19:12:33.946Z,5.87
2023-03-05T19:15:41.281Z,6.15
2023-03-05T19:18:10.329Z,6.12
2023-03-05T19:20:38.910Z,6.28
2023-03-05T19:23:07.782Z,6.16
2023-03-05T19:25:36.714Z,5.68
2023-03-05T19:28:05.585Z,5.62
2023-03-05T19:30:34.630Z,5.51
2023-03-05T19:33:04.731Z,5.42
2023-03-05T19:35:33.919Z,5.47
2023-03-05T19:38:02.705Z,5.40
2023-03-05T19:40:31.341Z,5.63
2023-03-05T19:43:00.229Z,5.55
2023-03-05T19:45:28.997Z,5.42
2023-03-05T19:47:58.207Z,5.26
2023-03-05T19:50:27.698Z,5.42
2023-03-05T19:52:58.174Z,5.30
2023-03-05T19:55:27.423Z,5.44
2023-03-05T19:57:56.213Z,5.52
2023-03-05T20:00:29.279Z,5.23
2023-03-05T20:02:59.111Z,5.31
2023-03-05T20:05:27.964Z,5.12
2023-03-05T20:07:56.988Z,4.99
2023-03-05T20:10:26.156Z,5.19
2023-03-05T20:12:55.124Z,5.06
2023-03-05T20:15:24.754Z,5.57
2023-03-05T20:17:54.157Z,6.03
2023-03-05T20:20:24.373Z,6.31
2023-03-05T20:22:53.444Z,6.61
2023-03-05T20:25:23.842Z,6.33
2023-03-05T20:27:53.521Z,6.34
2023-03-05T20:30:22.522Z,6.11
2023-03-05T20:32:51.456Z,6.45
2023-03-05T20:35:20.719Z,6.17
2023-03-05T20:38:24.301Z,6.34
2023-03-05T20:41:02.464Z,5.77
2023-03-05T20:43:34.720Z,5.63
2023-03-05T20:46:05.015Z,5.57
2023-03-05T20:48:35.086Z,5.30
2023-03-05T20:51:23.933Z,5.57
2023-03-05T20:54:03.351Z,5.46
2023-03-05T20:56:34.212Z,5.48
2023-03-05T20:59:05.901Z,5.35
2023-03-05T21:01:38.718Z,4.77
2023-03-05T21:04:08.310Z,4.84
2023-03-05T21:06:37.663Z,4.93
2023-03-05T21:09:06.929Z,5.03
2023-03-05T21:11:36.642Z,5.15
2023-03-05T21:14:05.888Z,5.02
2023-03-05T21:16:34.542Z,5.45
2023-03-05T21:19:03.616Z,5.63
2023-03-05T21:21:32.806Z,5.67
2023-03-05T21:24:02.986Z,5.51
2023-03-05T21:26:31.517Z,5.42
2023-03-05T21:29:00.278Z,5.42
2023-03-05T21:31:29.245Z,5.35
2023-03-05T21:33:58.730Z,5.44
2023-03-05T21:36:27.673Z,5.19
2023-03-05T21:38:56.651Z,5.29
2023-03-05T21:41:26.902Z,5.20
2023-03-05T21:43:55.895Z,5.30
2023-03-05T21:46:24.834Z,5.40
2023-03-05T21:52:10.530Z,5.16
2023-03-05T21:54:43.176Z,5.35
2023-03-05T21:57:13.430Z,5.25
2023-03-05T21:59:43.213Z,5.07
2023-03-05T22:02:17.906Z,5.09
2023-03-05T22:04:47.928Z,5.12
2023-03-05T22:07:18.939Z,5.04
2023-03-05T22:09:48.074Z,4.90
2023-03-05T22:13:12.855Z,4.63
2023-03-05T22:15:56.675Z,4.82
2023-03-05T22:18:31.811Z,4.72
2023-03-05T22:21:01.605Z,4.73
2023-03-05T22:23:32.761Z,5.13
2023-03-05T22:26:04.685Z,4.89
2023-03-05T22:28:36.109Z,5.11
2023-03-05T22:31:05.219Z,5.07
2023-03-05T22:33:34.001Z,4.87
2023-03-05T22:36:09.446Z,4.79
2023-03-05T22:38:39.017Z,4.83
2023-03-05T22:41:12.828Z,5.05
2023-03-05T22:43:42.421Z,5.26
2023-03-05T22:46:17.681Z,5.36
2023-03-05T22:48:48.980Z,5.31
2023-03-05T22:51:18.422Z,5.25
2023-03-05T22:53:47.520Z,5.38
2023-03-05T22:56:20.229Z,5.35
2023-03-05T22:58:49.624Z,5.23
